Time;durP1;ratioP1;P1;durP2;ratioP2;P2;SDS_P1;SDS_P2;PMS_P1;PMS_P2;Temp;Humidity;BMP_temperature;BMP_pressure;BME280_temperature;BME280_humidity;BME280_pressure;Samples;Min_cycle;Max_cycle;Signal;HPM_P1;HPM_P2
2022/07/04 00:00:59;;;;;;;3.75;2.00;;;23.00;99.90;;;;;;4844215;29;20050;-69
2022/07/04 00:03:26;;;;;;;6.68;2.60;;;23.00;99.90;;;;;;4856398;29;20457;-68
2022/07/04 00:05:54;;;;;;;6.25;2.40;;;23.00;99.90;;;;;;4865802;29;20045;-68
2022/07/04 00:08:21;;;;;;;4.20;2.20;;;23.00;99.90;;;;;;4863728;29;20056;-68
2022/07/04 00:10:49;;;;;;;5.70;2.45;;;22.90;99.90;;;;;;4852032;29;20053;-68
2022/07/04 00:13:16;;;;;;;4.97;2.65;;;22.90;99.90;;;;;;4844470;29;20393;-68
2022/07/04 00:15:43;;;;;;;4.55;2.65;;;22.80;99.90;;;;;;4842245;29;20053;-69
2022/07/04 00:18:11;;;;;;;4.40;2.33;;;22.80;99.90;;;;;;4846237;29;20057;-66
2022/07/04 00:20:38;;;;;;;5.75;2.50;;;22.70;99.90;;;;;;4841925;29;20587;-67
2022/07/04 00:23:06;;;;;;;7.10;2.30;;;22.70;99.90;;;;;;4837028;29;20527;-67
2022/07/04 00:25:33;;;;;;;4.53;2.17;;;22.70;99.90;;;;;;4842959;29;20106;-67
2022/07/04 00:28:00;;;;;;;5.90;2.55;;;22.60;99.90;;;;;;4843490;29;20153;-68
2022/07/04 00:30:28;;;;;;;6.32;2.35;;;22.60;99.90;;;;;;4866805;29;20099;-67
2022/07/04 00:32:55;;;;;;;5.05;2.45;;;22.50;99.90;;;;;;4837860;29;20209;-67
2022/07/04 00:35:22;;;;;;;4.57;2.65;;;22.50;99.90;;;;;;4837310;29;20049;-67
2022/07/04 00:37:50;;;;;;;4.38;2.60;;;22.40;99.90;;;;;;4837796;29;20149;-67
2022/07/04 00:40:17;;;;;;;5.35;2.25;;;22.40;99.90;;;;;;4837601;29;20065;-68
2022/07/04 00:42:45;;;;;;;4.65;2.35;;;22.30;99.90;;;;;;4839049;29;20045;-68
2022/07/04 00:45:12;;;;;;;4.28;2.10;;;22.30;99.90;;;;;;4845383;29;20802;-67
2022/07/04 00:47:39;;;;;;;4.65;2.05;;;22.30;99.90;;;;;;4854975;29;20096;-67
2022/07/04 00:50:07;;;;;;;5.28;2.20;;;22.30;99.90;;;;;;4846649;29;20169;-68
2022/07/04 00:52:34;;;;;;;6.00;2.28;;;22.30;99.90;;;;;;4851480;29;20561;-68
2022/07/04 00:55:02;;;;;;;6.03;2.47;;;22.20;99.90;;;;;;4847803;29;20085;-67
2022/07/04 00:57:29;;;;;;;4.05;2.22;;;22.20;99.90;;;;;;4853496;29;20051;-68
2022/07/04 00:59:57;;;;;;;5.47;2.67;;;22.10;99.90;;;;;;4844805;29;20140;-68
2022/07/04 01:02:24;;;;;;;4.40;2.75;;;22.10;99.90;;;;;;4842254;29;20054;-68
2022/07/04 01:04:52;;;;;;;3.15;2.17;;;22.10;99.90;;;;;;4844150;29;20053;-68
2022/07/04 01:07:20;;;;;;;4.68;2.40;;;22.00;99.90;;;;;;4845464;29;20102;-68
2022/07/04 01:09:47;;;;;;;4.35;2.45;;;22.00;99.90;;;;;;4843248;29;20049;-68
2022/07/04 01:12:26;;;;;;;6.13;2.80;;;21.90;99.90;;;;;;4846286;29;20081;-68
2022/07/04 01:14:53;;;;;;;5.13;2.55;;;21.90;99.90;;;;;;4834959;29;20154;-68
2022/07/04 01:17:21;;;;;;;4.68;2.72;;;21.80;99.90;;;;;;4846513;29;20140;-68
2022/07/04 01:19:48;;;;;;;5.03;3.00;;;21.80;99.90;;;;;;4843348;29;20493;-68
2022/07/04 01:22:16;;;;;;;7.78;2.60;;;21.70;99.90;;;;;;4839505;29;20057;-68
2022/07/04 01:24:43;;;;;;;5.63;2.70;;;21.70;99.90;;;;;;4841089;29;20925;-68
2022/07/04 01:27:11;;;;;;;3.75;2.55;;;21.60;99.90;;;;;;4828527;29;20111;-68
2022/07/04 01:29:38;;;;;;;4.93;2.60;;;21.50;99.90;;;;;;4853682;29;20076;-68
2022/07/04 01:32:08;;;;;;;5.43;2.72;;;21.50;99.90;;;;;;4842441;29;20551;-68
2022/07/04 01:34:36;;;;;;;6.55;3.20;;;21.40;99.90;;;;;;4846834;29;20133;-68
2022/07/04 01:37:09;;;;;;;4.68;2.90;;;21.40;99.90;;;;;;4850894;29;20052;-68
2022/07/04 01:39:37;;;;;;;5.38;3.30;;;21.30;99.90;;;;;;4840518;29;20129;-68
2022/07/04 01:42:05;;;;;;;4.97;3.30;;;21.30;99.90;;;;;;4840564;29;20042;-68
2022/07/04 01:44:33;;;;;;;7.25;3.17;;;21.20;99.90;;;;;;4840787;29;20049;-68
2022/07/04 01:47:02;;;;;;;5.30;3.42;;;21.20;99.90;;;;;;4853394;29;20152;-69
2022/07/04 01:49:29;;;;;;;4.65;2.53;;;21.10;99.90;;;;;;4829664;29;20148;-68
2022/07/04 01:51:56;;;;;;;4.85;2.90;;;21.20;99.90;;;;;;4842450;29;20133;-68
2022/07/04 01:54:26;;;;;;;6.10;2.80;;;21.10;99.90;;;;;;4841682;29;20504;-68
2022/07/04 01:56:53;;;;;;;5.32;2.95;;;21.10;99.90;;;;;;4840481;29;20133;-68
2022/07/04 02:01:29;;;;;;;6.68;3.10;;;21.20;99.90;;;;;;4840457;29;20071;-68
2022/07/04 02:02:08;;;;;;;4.95;2.97;;;21.10;99.90;;;;;;4843456;29;20132;-68
2022/07/04 02:04:37;;;;;;;8.07;3.10;;;21.10;99.90;;;;;;4844079;29;20568;-67
2022/07/04 02:07:05;;;;;;;6.50;3.33;;;21.10;99.90;;;;;;4846660;29;20126;-68
2022/07/04 02:09:32;;;;;;;4.45;2.75;;;21.10;99.90;;;;;;4854083;29;20053;-68
2022/07/04 02:14:45;;;;;;;4.95;2.80;;;21.00;99.90;;;;;;4872655;29;20065;-68
2022/07/04 02:17:13;;;;;;;5.03;2.80;;;21.00;99.90;;;;;;4848254;29;20046;-68
2022/07/04 02:19:44;;;;;;;4.80;2.90;;;21.00;99.90;;;;;;4850287;29;20075;-68
2022/07/04 02:22:11;;;;;;;6.43;3.60;;;21.00;99.90;;;;;;4852514;29;20144;-68
2022/07/04 02:24:38;;;;;;;6.35;3.97;;;20.90;99.90;;;;;;4852882;29;20045;-68
2022/07/04 02:27:06;;;;;;;5.45;3.08;;;20.90;99.90;;;;;;4857588;29;20106;-68
2022/07/04 02:29:33;;;;;;;5.32;3.45;;;20.80;99.90;;;;;;4872296;29;20057;-68
2022/07/04 02:32:01;;;;;;;5.45;3.78;;;20.70;99.90;;;;;;4842552;29;20050;-68
2022/07/04 02:34:28;;;;;;;6.20;3.67;;;20.60;99.90;;;;;;4848339;29;20117;-68
2022/07/04 02:36:55;;;;;;;4.68;3.03;;;20.60;99.90;;;;;;4854314;29;20053;-68
2022/07/04 02:39:24;;;;;;;5.57;3.38;;;20.50;99.90;;;;;;4847686;29;20061;-68
2022/07/04 02:41:51;;;;;;;6.47;3.28;;;20.50;99.90;;;;;;4851011;29;20516;-68
2022/07/04 02:44:23;;;;;;;6.25;3.03;;;20.40;99.90;;;;;;4855935;29;20045;-68
2022/07/04 02:46:50;;;;;;;7.70;3.10;;;20.30;99.90;;;;;;4840705;29;20057;-67
2022/07/04 02:49:18;;;;;;;5.28;3.20;;;20.30;99.90;;;;;;4857407;29;20049;-68
2022/07/04 02:51:45;;;;;;;7.63;3.63;;;20.20;99.90;;;;;;4857988;29;20076;-67
2022/07/04 02:54:13;;;;;;;6.35;3.83;;;20.20;99.90;;;;;;4851406;29;20133;-68
2022/07/04 02:56:40;;;;;;;5.97;3.55;;;20.10;99.90;;;;;;4872104;29;20056;-68
2022/07/04 02:59:08;;;;;;;4.97;3.28;;;20.00;99.90;;;;;;4853354;29;20055;-68
2022/07/04 03:01:35;;;;;;;5.38;3.20;;;20.10;99.90;;;;;;4857944;29;20587;-68
2022/07/04 03:04:03;;;;;;;6.22;3.55;;;20.10;99.90;;;;;;4853179;29;20485;-68
2022/07/04 03:06:31;;;;;;;5.68;3.70;;;20.10;99.90;;;;;;4853380;29;20041;-68
2022/07/04 03:08:58;;;;;;;6.13;3.20;;;20.10;99.90;;;;;;4841793;29;20482;-68
2022/07/04 03:11:26;;;;;;;5.22;2.65;;;20.00;99.90;;;;;;4866808;29;20615;-68
2022/07/04 03:13:53;;;;;;;4.20;2.85;;;20.00;99.90;;;;;;4848019;29;20045;-68
2022/07/04 03:16:20;;;;;;;4.68;2.67;;;20.00;99.90;;;;;;4853872;29;20531;-68
2022/07/04 03:18:48;;;;;;;7.63;2.97;;;20.00;99.90;;;;;;4847905;29;20041;-68
2022/07/04 03:21:15;;;;;;;3.85;2.60;;;19.90;99.90;;;;;;4854018;29;20162;-68
2022/07/04 03:23:42;;;;;;;5.40;2.42;;;19.80;99.90;;;;;;4850231;29;20828;-70
2022/07/04 03:26:10;;;;;;;3.83;2.38;;;19.80;99.90;;;;;;4856533;29;20056;-67
2022/07/04 03:28:37;;;;;;;5.95;2.65;;;19.80;99.90;;;;;;4842860;29;20050;-67
2022/07/04 03:31:04;;;;;;;5.22;2.40;;;19.70;99.90;;;;;;4840416;29;20117;-68
2022/07/04 03:33:32;;;;;;;3.85;2.30;;;19.60;99.90;;;;;;4853083;29;20531;-68
2022/07/04 03:35:59;;;;;;;3.42;2.20;;;19.60;99.90;;;;;;4853912;29;20059;-68
2022/07/04 03:38:26;;;;;;;5.97;2.40;;;19.50;99.90;;;;;;4856708;29;20137;-68
2022/07/04 03:40:54;;;;;;;3.67;2.15;;;19.50;99.90;;;;;;4854891;29;20497;-68
2022/07/04 03:43:21;;;;;;;8.68;2.30;;;19.40;99.90;;;;;;4856868;29;20497;-68
2022/07/04 03:45:48;;;;;;;5.68;2.20;;;19.40;99.90;;;;;;4856065;29;20045;-68
2022/07/04 03:48:16;;;;;;;3.65;2.45;;;19.40;99.90;;;;;;4857010;29;20061;-68
2022/07/04 03:50:43;;;;;;;4.32;2.13;;;19.40;99.90;;;;;;4846531;29;20069;-68
2022/07/04 03:53:12;;;;;;;4.07;2.13;;;19.30;99.90;;;;;;4855484;29;20053;-67
2022/07/04 03:55:39;;;;;;;4.22;1.98;;;19.30;99.90;;;;;;4856452;29;20501;-68
2022/07/04 03:58:06;;;;;;;5.85;2.47;;;19.30;99.90;;;;;;4855967;29;20532;-68
2022/07/04 04:00:34;;;;;;;4.93;2.30;;;19.20;99.90;;;;;;4855972;29;20054;-68
2022/07/04 04:03:01;;;;;;;3.83;2.00;;;19.30;99.90;;;;;;4856547;29;20742;-67
2022/07/04 04:05:30;;;;;;;4.85;1.95;;;19.30;99.90;;;;;;4861569;29;20472;-68
2022/07/04 04:08:00;;;;;;;4.90;2.05;;;19.30;99.90;;;;;;4856463;29;20053;-67
2022/07/04 04:10:32;;;;;;;4.60;2.30;;;19.30;99.90;;;;;;4853846;29;20114;-68
2022/07/04 04:12:59;;;;;;;;;;;19.30;99.90;;;;;;4853142;29;20649;-67
2022/07/04 04:15:27;;;;;;;5.40;2.10;;;19.20;99.90;;;;;;4855992;29;19924;-67
2022/07/04 04:17:54;;;;;;;3.95;2.28;;;19.30;99.90;;;;;;4850984;29;20041;-67
2022/07/04 04:20:21;;;;;;;4.03;1.98;;;19.30;99.90;;;;;;4857180;29;20072;-67
2022/07/04 04:22:50;;;;;;;4.18;2.03;;;19.40;99.90;;;;;;4841485;29;20097;-67
2022/07/04 04:25:17;;;;;;;4.05;1.92;;;19.50;99.90;;;;;;4846873;29;20069;-68
2022/07/04 04:27:45;;;;;;;4.55;2.20;;;19.50;99.90;;;;;;4854624;29;20049;-68
2022/07/04 04:30:12;;;;;;;3.78;2.10;;;19.60;99.90;;;;;;4837690;29;20103;-68
2022/07/04 04:32:40;;;;;;;5.80;2.10;;;19.50;99.90;;;;;;4856004;29;20595;-68
2022/07/04 04:35:07;;;;;;;5.25;1.90;;;19.60;99.90;;;;;;4846611;29;20081;-68
2022/07/04 04:37:35;;;;;;;3.20;1.80;;;19.60;99.90;;;;;;4849313;29;20037;-68
2022/07/04 04:40:02;;;;;;;9.55;2.30;;;19.60;99.90;;;;;;4842964;29;20105;-69
2022/07/04 04:42:30;;;;;;;3.90;2.20;;;19.70;99.90;;;;;;4852561;29;20073;-69
2022/07/04 04:44:57;;;;;;;3.60;2.00;;;19.70;99.90;;;;;;4864731;29;20057;-69
2022/07/04 04:47:24;;;;;;;10.75;2.03;;;19.70;99.90;;;;;;4838468;29;20069;-67
2022/07/04 04:49:51;;;;;;;8.82;2.55;;;19.80;99.90;;;;;;4845727;29;20056;-68
2022/07/04 04:52:19;;;;;;;4.28;2.10;;;19.80;99.90;;;;;;4849375;29;20546;-68
2022/07/04 04:54:46;;;;;;;4.43;2.13;;;19.80;99.90;;;;;;4838687;29;20773;-68
2022/07/04 04:57:13;;;;;;;4.18;2.10;;;19.90;99.90;;;;;;4846311;29;20147;-68
2022/07/04 04:59:41;;;;;;;5.13;2.17;;;20.10;99.90;;;;;;4846370;29;20425;-68
2022/07/04 05:02:08;;;;;;;10.75;2.42;;;20.10;99.90;;;;;;4852729;29;20054;-69
2022/07/04 05:04:42;;;;;;;6.85;2.20;;;20.20;99.90;;;;;;4855562;29;20579;-68
2022/07/04 05:07:11;;;;;;;4.00;1.90;;;20.10;99.90;;;;;;4842514;29;20058;-68
2022/07/04 05:09:39;;;;;;;7.00;2.13;;;19.80;99.90;;;;;;4847470;29;20057;-67
2022/07/04 05:12:06;;;;;;;5.80;2.10;;;19.90;99.90;;;;;;4844795;29;20056;-67
2022/07/04 05:14:34;;;;;;;4.90;2.08;;;19.90;99.90;;;;;;4856011;29;20049;-67
2022/07/04 05:17:01;;;;;;;5.53;2.20;;;19.90;99.90;;;;;;4852630;29;20126;-67
2022/07/04 05:19:29;;;;;;;6.70;2.50;;;19.80;99.90;;;;;;4843248;29;20098;-68
2022/07/04 05:21:56;;;;;;;7.93;2.33;;;19.90;99.90;;;;;;4844590;29;20067;-68
2022/07/04 05:24:24;;;;;;;4.78;1.98;;;20.00;99.90;;;;;;4851749;29;20061;-67
2022/07/04 05:26:51;;;;;;;6.40;2.40;;;19.90;99.90;;;;;;4855509;29;20136;-67
2022/07/04 05:29:24;;;;;;;4.25;2.22;;;19.90;99.90;;;;;;4855842;29;20056;-68
2022/07/04 05:31:51;;;;;;;5.28;2.22;;;19.90;99.90;;;;;;4872664;29;20512;-68
2022/07/04 05:34:19;;;;;;;6.32;2.00;;;20.00;99.90;;;;;;4855267;29;20105;-68
2022/07/04 05:36:46;;;;;;;3.15;1.95;;;20.20;99.90;;;;;;4843068;29;20395;-69
2022/07/04 05:39:14;;;;;;;6.28;2.40;;;20.20;99.90;;;;;;4835373;29;20464;-68
2022/07/04 05:41:41;;;;;;;6.25;2.50;;;20.30;99.90;;;;;;4840960;29;20049;-68
2022/07/04 05:44:08;;;;;;;4.78;2.08;;;20.30;99.90;;;;;;4846058;29;20048;-68
2022/07/04 05:46:36;;;;;;;4.50;2.30;;;20.20;99.90;;;;;;4848630;29;20440;-68
2022/07/04 05:49:03;;;;;;;8.38;2.60;;;20.30;99.90;;;;;;4846653;29;20489;-68
2022/07/04 05:51:30;;;;;;;4.28;2.38;;;20.40;99.90;;;;;;4850200;29;20058;-68
2022/07/04 05:53:57;;;;;;;5.50;2.35;;;20.50;99.90;;;;;;4854037;29;20536;-68
2022/07/04 05:56:25;;;;;;;4.80;2.00;;;20.60;99.90;;;;;;4845717;29;20180;-68
2022/07/04 05:58:53;;;;;;;5.95;2.15;;;20.50;99.90;;;;;;4852954;29;20042;-68
2022/07/04 06:01:22;;;;;;;4.82;2.03;;;20.60;99.90;;;;;;4839258;29;20053;-69
2022/07/04 06:03:50;;;;;;;7.82;2.35;;;20.50;99.90;;;;;;4844729;29;20042;-68
2022/07/04 06:06:17;;;;;;;7.30;2.60;;;20.70;99.90;;;;;;4844204;29;20050;-68
2022/07/04 06:08:44;;;;;;;5.35;2.58;;;20.70;99.90;;;;;;4847738;29;20178;-67
2022/07/04 06:11:12;;;;;;;11.82;3.08;;;20.80;99.90;;;;;;4842785;29;20042;-67
2022/07/04 06:13:39;;;;;;;5.50;2.35;;;20.80;99.90;;;;;;4844285;29;20484;-67
2022/07/04 06:16:06;;;;;;;6.15;2.22;;;20.90;99.90;;;;;;4858830;29;20064;-67
2022/07/04 06:18:34;;;;;;;6.10;2.65;;;20.90;99.90;;;;;;4843768;29;20381;-67
2022/07/04 06:21:01;;;;;;;7.20;2.40;;;20.90;99.90;;;;;;4853130;29;20049;-65
2022/07/04 06:23:29;;;;;;;4.43;2.00;;;21.00;99.90;;;;;;4845770;29;20045;-64
2022/07/04 06:25:56;;;;;;;7.80;2.42;;;20.90;99.90;;;;;;4843089;29;20145;-64
2022/07/04 06:28:23;;;;;;;7.35;2.65;;;20.90;99.90;;;;;;4845152;29;20568;-66
2022/07/04 06:31:12;;;;;;;6.80;2.50;;;20.90;99.90;;;;;;4849844;29;20098;-63
2022/07/04 06:36:25;;;;;;;6.57;2.80;;;20.90;99.90;;;;;;4851535;29;20137;-63
2022/07/04 06:38:52;;;;;;;4.55;2.58;;;20.90;99.90;;;;;;4842053;29;20494;-64
2022/07/04 06:41:20;;;;;;;7.45;2.78;;;20.90;99.90;;;;;;4851786;29;20070;-63
2022/07/04 06:43:47;;;;;;;5.93;2.58;;;21.00;99.90;;;;;;4857240;29;20053;-63
2022/07/04 06:46:15;;;;;;;5.13;2.60;;;20.90;99.90;;;;;;4846708;29;20500;-64
2022/07/04 06:48:43;;;;;;;5.82;2.80;;;21.00;99.90;;;;;;4851099;29;20058;-64
2022/07/04 06:51:11;;;;;;;7.35;2.40;;;20.90;99.90;;;;;;4839967;29;20145;-64
2022/07/04 06:53:40;;;;;;;6.40;2.55;;;21.10;99.90;;;;;;4851342;29;20057;-64
2022/07/04 06:56:08;;;;;;;4.38;2.72;;;21.20;99.90;;;;;;4844919;29;20061;-64
2022/07/04 06:58:35;;;;;;;4.20;2.58;;;21.30;99.90;;;;;;4851936;29;20587;-64
2022/07/04 07:01:02;;;;;;;4.15;2.38;;;21.40;99.90;;;;;;4864619;29;20053;-63
2022/07/04 07:03:30;;;;;;;4.85;2.55;;;21.70;99.90;;;;;;4850720;29;20046;-65
2022/07/04 07:05:57;;;;;;;5.85;2.53;;;21.80;99.90;;;;;;4851415;29;20517;-62
2022/07/04 07:08:27;;;;;;;4.90;2.72;;;21.90;99.90;;;;;;4841181;29;20061;-64
2022/07/04 07:11:12;;;;;;;6.43;2.60;;;21.90;99.90;;;;;;4856616;29;20868;-63
2022/07/04 07:13:42;;;;;;;5.10;2.83;;;22.10;99.90;;;;;;4856277;29;20055;-64
2022/07/04 07:16:10;;;;;;;5.15;2.40;;;22.20;99.90;;;;;;4852951;29;20054;-63
2022/07/04 07:18:37;;;;;;;5.75;2.63;;;22.50;99.90;;;;;;4849759;29;20114;-65
2022/07/04 07:21:05;;;;;;;4.72;2.53;;;22.80;99.90;;;;;;4840534;29;20038;-63
2022/07/04 07:23:32;;;;;;;6.10;2.75;;;22.80;99.90;;;;;;4842770;29;20394;-63
2022/07/04 07:26:00;;;;;;;7.05;2.60;;;22.90;99.90;;;;;;4849221;29;20057;-65
2022/07/04 07:28:27;;;;;;;4.85;2.30;;;22.90;99.90;;;;;;4855514;29;20133;-64
2022/07/04 07:30:54;;;;;;;6.78;3.10;;;23.00;99.90;;;;;;4868471;29;20460;-64
2022/07/04 07:33:22;;;;;;;5.72;2.80;;;22.90;99.90;;;;;;4848684;29;20056;-64
2022/07/04 07:35:49;;;;;;;6.35;2.75;;;22.80;99.90;;;;;;4855849;29;20483;-64
2022/07/04 07:38:16;;;;;;;5.97;2.75;;;23.10;99.90;;;;;;4845556;29;20046;-65
2022/07/04 07:40:44;;;;;;;4.78;2.70;;;23.50;99.90;;;;;;4852237;29;20049;-65
2022/07/04 07:43:11;;;;;;;5.20;2.70;;;23.70;99.90;;;;;;4855885;29;20069;-63
2022/07/04 07:45:38;;;;;;;5.00;3.13;;;23.40;99.90;;;;;;4854695;29;20518;-64
2022/07/04 07:48:06;;;;;;;4.57;2.45;;;23.40;99.90;;;;;;4855220;29;20050;-64
2022/07/04 07:50:33;;;;;;;4.75;2.50;;;23.40;99.90;;;;;;4854914;29;20141;-64
2022/07/04 07:53:01;;;;;;;5.95;2.60;;;23.30;99.90;;;;;;4838295;29;20161;-68
2022/07/04 07:55:28;;;;;;;5.72;2.67;;;23.40;99.90;;;;;;4850148;29;20141;-64
2022/07/04 07:57:58;;;;;;;4.18;2.60;;;23.60;99.90;;;;;;4853200;29;20050;-64
2022/07/04 08:00:26;;;;;;;8.25;3.08;;;23.80;99.90;;;;;;4851058;29;20125;-63
2022/07/04 08:05:59;;;;;;;8.50;2.80;;;23.70;99.90;;;;;;4855913;29;20056;-64
2022/07/04 08:08:26;;;;;;;6.35;2.40;;;24.20;99.90;;;;;;4856933;29;20576;-65
2022/07/04 08:10:53;;;;;;;5.75;2.63;;;24.20;99.90;;;;;;4854799;29;20410;-64
2022/07/04 08:13:21;;;;;;;6.03;2.53;;;24.40;99.90;;;;;;4856814;29;20453;-65
2022/07/04 08:15:48;;;;;;;7.00;2.83;;;24.50;99.90;;;;;;4855269;29;20417;-64
2022/07/04 08:18:17;;;;;;;5.43;2.50;;;24.40;99.90;;;;;;4850213;29;20128;-64
2022/07/04 08:20:44;;;;;;;5.55;2.60;;;24.60;99.90;;;;;;4856295;29;20566;-65
2022/07/04 08:23:29;;;;;;;5.72;2.53;;;24.60;99.90;;;;;;4839835;29;20108;-64
2022/07/04 08:25:57;;;;;;;5.47;2.50;;;24.90;99.90;;;;;;4845402;29;20125;-64
2022/07/04 08:28:26;;;;;;;4.82;2.70;;;25.00;99.90;;;;;;4851175;29;20500;-65
2022/07/04 08:30:56;;;;;;;6.07;2.83;;;25.10;99.90;;;;;;4846082;29;20517;-64
2022/07/04 08:33:24;;;;;;;5.10;2.72;;;25.50;99.90;;;;;;4853533;29;20050;-63
2022/07/04 08:35:53;;;;;;;5.70;2.63;;;25.40;99.90;;;;;;4845764;29;20045;-64
2022/07/04 08:38:21;;;;;;;3.80;2.30;;;25.60;99.90;;;;;;4856401;29;20054;-64
2022/07/04 08:40:50;;;;;;;5.07;2.67;;;25.50;99.90;;;;;;4854486;29;20505;-63
2022/07/04 08:43:22;;;;;;;5.25;2.92;;;25.40;99.90;;;;;;4836182;29;20053;-64
2022/07/04 08:45:53;;;;;;;4.53;2.35;;;25.10;99.90;;;;;;4854493;29;20042;-64
2022/07/04 08:48:42;;;;;;;5.82;2.55;;;25.20;99.90;;;;;;4844376;29;20056;-63
2022/07/04 08:51:22;;;;;;;4.10;2.63;;;25.50;99.90;;;;;;4855704;29;20600;-63
2022/07/04 08:53:54;;;;;;;4.57;2.70;;;25.50;99.90;;;;;;4856121;29;20037;-64
2022/07/04 08:59:08;;;;;;;6.05;2.90;;;25.80;99.90;;;;;;4850929;29;20056;-64
2022/07/04 09:01:39;;;;;;;4.75;2.85;;;25.90;99.90;;;;;;4852522;29;20047;-65
2022/07/04 09:04:08;;;;;;;7.03;3.30;;;26.00;99.90;;;;;;4845829;29;20133;-64
2022/07/04 09:06:35;;;;;;;6.07;2.47;;;25.70;99.90;;;;;;4848562;29;20098;-64
2022/07/04 09:09:03;;;;;;;4.75;2.50;;;25.60;99.90;;;;;;4854392;29;20049;-64
2022/07/04 09:11:30;;;;;;;5.22;2.40;;;25.70;99.90;;;;;;4851333;29;20046;-64
2022/07/04 09:13:58;;;;;;;5.32;2.90;;;26.20;99.90;;;;;;4850620;29;20656;-64
2022/07/04 09:16:25;;;;;;;7.20;2.75;;;26.50;99.90;;;;;;4854607;29;20448;-65
2022/07/04 09:18:55;;;;;;;8.73;5.03;;;26.70;99.90;;;;;;4846741;29;20046;-64
2022/07/04 09:21:42;;;;;;;10.35;4.97;;;26.90;99.90;;;;;;4852602;29;20488;-64
2022/07/04 09:24:09;;;;;;;6.65;2.85;;;26.90;99.90;;;;;;4855868;29;20049;-64
2022/07/04 09:26:41;;;;;;;4.22;2.60;;;27.20;99.90;;;;;;4856002;29;20109;-64
2022/07/04 09:29:08;;;;;;;;;;;26.90;99.90;;;;;;4855663;29;20066;-64
2022/07/04 09:31:37;;;;;;;4.10;2.67;;;26.40;99.90;;;;;;4846154;29;19928;-64
2022/07/04 09:34:07;;;;;;;4.68;2.97;;;26.80;99.90;;;;;;4854104;29;20059;-65
2022/07/04 09:36:39;;;;;;;5.78;2.60;;;27.20;99.90;;;;;;4852765;29;20056;-65
2022/07/04 09:39:14;;;;;;;6.35;2.53;;;27.10;99.90;;;;;;4851642;29;20162;-65
2022/07/04 09:41:52;;;;;;;4.78;2.22;;;27.10;99.90;;;;;;4854143;29;20520;-65
2022/07/04 09:44:20;;;;;;;5.07;2.28;;;27.40;99.90;;;;;;4853214;29;20137;-64
2022/07/04 09:46:47;;;;;;;7.20;2.60;;;27.20;99.90;;;;;;4854917;29;20041;-64
2022/07/04 09:49:15;;;;;;;4.45;2.33;;;27.10;99.90;;;;;;4854192;29;20054;-64
2022/07/04 09:51:45;;;;;;;5.22;2.25;;;27.40;99.90;;;;;;4854312;29;20269;-65
2022/07/04 09:54:15;;;;;;;7.05;2.20;;;27.60;99.90;;;;;;4841978;29;20049;-64
2022/07/04 09:56:46;;;;;;;8.52;2.58;;;27.40;99.90;;;;;;4855669;29;20072;-66
2022/07/04 09:59:13;;;;;;;4.25;2.33;;;27.40;99.90;;;;;;4855775;29;20109;-64
2022/07/04 10:01:41;;;;;;;6.75;2.58;;;26.90;99.90;;;;;;4859242;29;20045;-63
2022/07/04 10:04:09;;;;;;;4.90;2.30;;;26.70;99.90;;;;;;4859398;29;20489;-65
2022/07/04 10:06:39;;;;;;;4.07;2.22;;;26.50;99.90;;;;;;4852078;29;20102;-64
2022/07/04 10:09:15;;;;;;;4.20;2.25;;;26.60;99.90;;;;;;4862332;29;20501;-64
2022/07/04 10:11:44;;;;;;;7.47;2.33;;;27.10;99.90;;;;;;4852378;29;20046;-65
2022/07/04 10:14:14;;;;;;;4.22;2.20;;;27.20;99.90;;;;;;4851812;29;20491;-65
2022/07/04 10:16:42;;;;;;;3.38;2.10;;;27.10;99.90;;;;;;4854259;29;20092;-64
2022/07/04 10:19:12;;;;;;;6.32;2.30;;;27.10;99.90;;;;;;4855854;29;20561;-63
2022/07/04 10:21:39;;;;;;;5.00;2.10;;;27.30;99.90;;;;;;4855282;29;20042;-62
2022/07/04 10:24:08;;;;;;;5.93;2.55;;;27.60;99.90;;;;;;4853801;29;20057;-64
2022/07/04 10:26:35;;;;;;;5.97;2.15;;;27.50;99.90;;;;;;4853557;29;20042;-63
2022/07/04 10:29:03;;;;;;;4.40;2.33;;;27.60;99.90;;;;;;4849961;29;20065;-63
2022/07/04 10:31:31;;;;;;;4.72;2.20;;;27.50;99.90;;;;;;4849133;29;20136;-64
2022/07/04 10:34:00;;;;;;;3.90;2.45;;;27.60;99.90;;;;;;4854229;29;20420;-64
2022/07/04 10:36:29;;;;;;;4.10;2.30;;;27.60;99.90;;;;;;4849194;29;20067;-64
2022/07/04 10:38:59;;;;;;;6.07;2.10;;;27.40;99.90;;;;;;4852154;29;20050;-64
2022/07/04 10:41:28;;;;;;;8.73;2.30;;;27.50;99.90;;;;;;4847333;29;20479;-64
2022/07/04 10:44:01;;;;;;;5.47;1.80;;;27.80;99.90;;;;;;4857340;29;20077;-65
2022/07/04 10:46:30;;;;;;;4.88;1.90;;;27.70;99.90;;;;;;4854187;29;20485;-65
2022/07/04 10:49:15;;;;;;;5.75;2.28;;;27.40;99.90;;;;;;4848083;29;20122;-64
2022/07/04 10:51:47;;;;;;;3.75;1.90;;;27.70;99.90;;;;;;4839050;29;20132;-64
2022/07/04 10:54:31;;;;;;;4.03;1.83;;;28.00;99.90;;;;;;4857681;29;20041;-63
2022/07/04 10:57:19;;;;;;;3.67;2.10;;;28.30;99.90;;;;;;4842385;29;20584;-62
2022/07/04 10:59:57;;;;;;;4.75;2.25;;;28.10;99.90;;;;;;4842205;29;20161;-63
2022/07/04 11:02:28;;;;;;;4.43;2.95;;;27.70;99.90;;;;;;4843788;29;20564;-67
2022/07/04 11:05:07;;;;;;;8.80;2.45;;;27.80;99.90;;;;;;4845758;29;20052;-64
2022/07/04 11:07:39;;;;;;;6.40;2.05;;;27.70;99.90;;;;;;4852504;29;20503;-64
2022/07/04 11:12:56;;;;;;;4.47;2.08;;;27.90;99.90;;;;;;4844511;29;20061;-65
2022/07/04 11:15:27;;;;;;;5.13;1.75;;;28.10;99.40;;;;;;4844501;29;20136;-64
2022/07/04 11:17:59;;;;;;;3.08;1.88;;;28.30;99.80;;;;;;4847113;29;20057;-63
2022/07/04 11:20:29;;;;;;;6.07;2.40;;;28.00;99.90;;;;;;4851551;29;20056;-64
2022/07/04 11:23:14;;;;;;;4.45;2.60;;;28.30;99.90;;;;;;4852190;29;20783;-63
2022/07/04 11:25:46;;;;;;;6.85;1.92;;;27.90;99.90;;;;;;4849541;29;20366;-66
2022/07/04 11:28:35;;;;;;;5.90;1.80;;;27.80;99.90;;;;;;4840199;29;20052;-67
2022/07/04 11:31:12;;;;;;;3.88;1.70;;;27.90;99.90;;;;;;4844992;29;20074;-63
2022/07/04 11:33:41;;;;;;;4.40;1.80;;;27.90;99.90;;;;;;4845578;29;20829;-63
2022/07/04 11:36:17;;;;;;;3.08;1.60;;;28.10;99.90;;;;;;4844573;29;20505;-63
2022/07/04 11:38:57;;;;;;;4.68;1.95;;;28.30;99.10;;;;;;4853262;29;20594;-64
2022/07/04 11:47:12;;;;;;;4.25;2.00;;;29.30;98.50;;;;;;4864867;29;20438;-63
2022/07/04 11:49:54;;;;;;;3.47;1.60;;;29.60;98.20;;;;;;4846164;29;20068;-66
2022/07/04 11:52:44;;;;;;;4.50;1.80;;;30.00;97.50;;;;;;4843571;29;20585;-63
2022/07/04 11:55:32;;;;;;;3.70;1.85;;;29.00;97.60;;;;;;4839643;29;20046;-62
2022/07/04 11:57:59;;;;;;;4.68;2.03;;;29.40;98.20;;;;;;4849954;29;20263;-62
2022/07/04 12:00:31;;;;;;;3.50;1.70;;;29.10;98.10;;;;;;4848292;29;20042;-63
2022/07/04 12:03:00;;;;;;;6.75;1.55;;;29.50;97.50;;;;;;4845113;29;20062;-62
2022/07/04 12:05:28;;;;;;;4.10;1.60;;;29.90;97.00;;;;;;4840004;29;20050;-67
2022/07/04 12:07:56;;;;;;;4.43;1.63;;;29.80;96.60;;;;;;4858334;29;20540;-68
2022/07/04 12:10:43;;;;;;;3.03;1.60;;;30.40;96.60;;;;;;4826731;29;20056;-65
2022/07/04 12:13:18;;;;;;;4.07;1.73;;;31.10;95.40;;;;;;4854690;29;20513;-63
2022/07/04 12:15:48;;;;;;;2.95;1.52;;;31.00;94.80;;;;;;4847772;29;20517;-64
2022/07/04 12:18:19;;;;;;;4.97;1.42;;;31.20;94.80;;;;;;4850882;29;20053;-64
2022/07/04 12:20:48;;;;;;;8.48;2.00;;;31.60;94.40;;;;;;4845275;29;20130;-64
2022/07/04 12:23:18;;;;;;;4.05;1.80;;;30.90;94.20;;;;;;4840916;29;20515;-63
2022/07/04 12:25:47;;;;;;;4.63;1.50;;;30.30;94.20;;;;;;4846882;29;20172;-62
2022/07/04 12:28:16;;;;;;;4.20;1.58;;;30.10;94.20;;;;;;4837885;29;20113;-63
2022/07/04 12:31:10;;;;;;;8.55;1.83;;;29.80;94.90;;;;;;4848884;29;20049;-64
2022/07/04 12:33:38;;;;;;;4.45;1.88;;;29.50;95.10;;;;;;4846987;29;20049;-63
2022/07/04 12:36:06;;;;;;;2.97;1.40;;;29.20;95.50;;;;;;4845180;29;20081;-62
2022/07/04 12:38:39;;;;;;;5.28;1.48;;;30.20;95.10;;;;;;4843225;29;20141;-64
2022/07/04 12:41:07;;;;;;;3.67;1.48;;;31.00;93.90;;;;;;4843669;29;20425;-62
2022/07/04 12:43:41;;;;;;;5.30;1.60;;;31.30;93.30;;;;;;4841072;29;20124;-61
2022/07/04 12:46:09;;;;;;;6.15;1.55;;;30.60;93.20;;;;;;4846583;29;20541;-63
2022/07/04 12:48:37;;;;;;;4.70;1.73;;;30.20;93.60;;;;;;4847372;29;20053;-65
2022/07/04 12:51:13;;;;;;;3.40;1.45;;;30.40;93.80;;;;;;4852823;29;20105;-63
2022/07/04 12:53:44;;;;;;;4.88;1.42;;;30.90;92.90;;;;;;4859987;29;20104;-64
2022/07/04 12:56:32;;;;;;;3.55;1.65;;;31.60;92.50;;;;;;4844569;29;20271;-64
2022/07/04 12:59:01;;;;;;;4.70;1.30;;;31.70;92.10;;;;;;4837525;29;20129;-63
2022/07/04 13:01:29;;;;;;;3.38;1.50;;;31.70;91.60;;;;;;4845360;29;20445;-64
2022/07/04 13:03:58;;;;;;;3.28;1.45;;;32.80;90.50;;;;;;4865770;29;20132;-62
2022/07/04 13:06:27;;;;;;;5.13;1.30;;;33.10;90.00;;;;;;4849705;29;20098;-63
2022/07/04 13:08:56;;;;;;;5.57;1.25;;;32.60;88.90;;;;;;4853313;29;20549;-64
2022/07/04 13:14:10;;;;;;;2.88;1.20;;;33.50;86.10;;;;;;4854445;29;20148;-62
2022/07/04 13:16:37;;;;;;;3.13;1.30;;;33.40;84.60;;;;;;4840655;29;20510;-63
2022/07/04 13:19:07;;;;;;;3.65;1.30;;;34.30;83.40;;;;;;4842757;29;20049;-64
2022/07/04 13:21:35;;;;;;;4.80;1.48;;;34.60;81.10;;;;;;4842344;29;20061;-63